sensor_id;sensor_type;location;lat;lon;timestamp;temperature;humidity
44731;DHT22;30458;47.448;19.032;2023-07-31T00:02:54;22.00;99.90
44731;DHT22;30458;47.448;19.032;2023-07-31T00:12:55;22.10;99.90
44731;DHT22;30458;47.448;19.032;2023-07-31T00:22:55;22.10;99.90
44731;DHT22;30458;47.448;19.032;2023-07-31T00:32:56;22.10;99.90
44731;DHT22;30458;47.448;19.032;2023-07-31T00:42:57;22.10;99.90
44731;DHT22;30458;47.448;19.032;2023-07-31T00:53:00;22.00;99.90
44731;DHT22;30458;47.448;19.032;2023-07-31T01:03:01;22.00;99.90
44731;DHT22;30458;47.448;19.032;2023-07-31T01:13:03;21.80;99.90
44731;DHT22;30458;47.448;19.032;2023-07-31T01:33:26;21.50;99.90
44731;DHT22;30458;47.448;19.032;2023-07-31T01:43:34;21.60;99.90
44731;DHT22;30458;47.448;19.032;2023-07-31T01:53:39;21.60;99.90
44731;DHT22;30458;47.448;19.032;2023-07-31T02:03:42;21.40;99.90
44731;DHT22;30458;47.448;19.032;2023-07-31T02:13:43;21.40;99.90
44731;DHT22;30458;47.448;19.032;2023-07-31T02:23:44;21.50;99.90
44731;DHT22;30458;47.448;19.032;2023-07-31T02:33:47;21.50;99.90
44731;DHT22;30458;47.448;19.032;2023-07-31T02:43:53;21.30;99.90
44731;DHT22;30458;47.448;19.032;2023-07-31T02:53:54;21.30;99.90
44731;DHT22;30458;47.448;19.032;2023-07-31T03:03:55;21.30;99.90
44731;DHT22;30458;47.448;19.032;2023-07-31T03:13:56;21.00;99.90
44731;DHT22;30458;47.448;19.032;2023-07-31T03:23:56;20.90;99.90
44731;DHT22;30458;47.448;19.032;2023-07-31T03:33:57;20.80;99.90
44731;DHT22;30458;47.448;19.032;2023-07-31T03:43:58;20.70;99.90
44731;DHT22;30458;47.448;19.032;2023-07-31T03:53:59;20.80;99.90
44731;DHT22;30458;47.448;19.032;2023-07-31T04:03:59;21.30;99.90
44731;DHT22;30458;47.448;19.032;2023-07-31T04:14:00;22.10;99.90
44731;DHT22;30458;47.448;19.032;2023-07-31T04:24:06;22.60;99.90
44731;DHT22;30458;47.448;19.032;2023-07-31T04:34:09;22.80;99.90
44731;DHT22;30458;47.448;19.032;2023-07-31T04:44:10;22.40;99.90
44731;DHT22;30458;47.448;19.032;2023-07-31T04:54:13;22.30;99.90
44731;DHT22;30458;47.448;19.032;2023-07-31T05:04:16;22.80;99.90
44731;DHT22;30458;47.448;19.032;2023-07-31T05:14:19;23.20;99.90
44731;DHT22;30458;47.448;19.032;2023-07-31T05:24:20;24.30;97.90
44731;DHT22;30458;47.448;19.032;2023-07-31T05:34:23;25.80;92.90
44731;DHT22;30458;47.448;19.032;2023-07-31T05:44:24;25.20;93.60
44731;DHT22;30458;47.448;19.032;2023-07-31T05:54:27;25.60;92.30
44731;DHT22;30458;47.448;19.032;2023-07-31T06:04:28;24.80;92.60
44731;DHT22;30458;47.448;19.032;2023-07-31T06:14:29;24.60;93.20
44731;DHT22;30458;47.448;19.032;2023-07-31T06:24:32;25.60;92.20
44731;DHT22;30458;47.448;19.032;2023-07-31T06:34:33;25.80;92.80
44731;DHT22;30458;47.448;19.032;2023-07-31T06:44:33;27.00;91.00
44731;DHT22;30458;47.448;19.032;2023-07-31T06:54:34;26.30;90.30
44731;DHT22;30458;47.448;19.032;2023-07-31T07:04:37;25.50;90.70
44731;DHT22;30458;47.448;19.032;2023-07-31T07:14:38;25.00;91.60
44731;DHT22;30458;47.448;19.032;2023-07-31T07:24:39;24.50;91.70
44731;DHT22;30458;47.448;19.032;2023-07-31T07:34:40;24.50;92.20
44731;DHT22;30458;47.448;19.032;2023-07-31T07:44:40;25.20;91.90
44731;DHT22;30458;47.448;19.032;2023-07-31T07:54:44;25.50;90.60
44731;DHT22;30458;47.448;19.032;2023-07-31T08:04:46;25.40;89.60
44731;DHT22;30458;47.448;19.032;2023-07-31T08:14:47;25.00;90.00
44731;DHT22;30458;47.448;19.032;2023-07-31T08:24:48;25.50;88.90
44731;DHT22;30458;47.448;19.032;2023-07-31T08:34:54;26.20;84.30
44731;DHT22;30458;47.448;19.032;2023-07-31T08:44:58;26.20;83.50
44731;DHT22;30458;47.448;19.032;2023-07-31T08:54:59;26.10;84.00
44731;DHT22;30458;47.448;19.032;2023-07-31T09:05:01;26.20;83.70
44731;DHT22;30458;47.448;19.032;2023-07-31T09:15:03;26.00;82.70
44731;DHT22;30458;47.448;19.032;2023-07-31T09:25:24;25.80;83.00
44731;DHT22;30458;47.448;19.032;2023-07-31T09:35:34;25.70;83.60
44731;DHT22;30458;47.448;19.032;2023-07-31T09:45:46;25.90;83.00
44731;DHT22;30458;47.448;19.032;2023-07-31T09:55:51;25.80;86.10
44731;DHT22;30458;47.448;19.032;2023-07-31T10:05:56;25.90;85.40
44731;DHT22;30458;47.448;19.032;2023-07-31T10:16:02;25.70;83.70
44731;DHT22;30458;47.448;19.032;2023-07-31T10:26:07;25.70;84.60
44731;DHT22;30458;47.448;19.032;2023-07-31T10:36:17;25.60;83.10
44731;DHT22;30458;47.448;19.032;2023-07-31T10:46:18;25.60;84.60
44731;DHT22;30458;47.448;19.032;2023-07-31T10:56:19;25.70;84.90
44731;DHT22;30458;47.448;19.032;2023-07-31T11:06:29;25.60;83.50
44731;DHT22;30458;47.448;19.032;2023-07-31T11:16:30;25.60;82.60
44731;DHT22;30458;47.448;19.032;2023-07-31T11:26:30;25.70;83.20
44731;DHT22;30458;47.448;19.032;2023-07-31T11:36:31;25.80;82.70
44731;DHT22;30458;47.448;19.032;2023-07-31T11:46:32;25.70;82.60
44731;DHT22;30458;47.448;19.032;2023-07-31T11:56:33;25.80;80.20
44731;DHT22;30458;47.448;19.032;2023-07-31T12:06:35;25.80;81.20
44731;DHT22;30458;47.448;19.032;2023-07-31T12:16:36;26.00;80.30
44731;DHT22;30458;47.448;19.032;2023-07-31T12:26:37;26.00;80.30
44731;DHT22;30458;47.448;19.032;2023-07-31T12:36:40;26.10;80.50
44731;DHT22;30458;47.448;19.032;2023-07-31T12:46:43;26.10;80.80
44731;DHT22;30458;47.448;19.032;2023-07-31T12:56:43;26.00;81.20
44731;DHT22;30458;47.448;19.032;2023-07-31T13:06:45;26.00;81.20
44731;DHT22;30458;47.448;19.032;2023-07-31T13:16:48;26.00;81.20
44731;DHT22;30458;47.448;19.032;2023-07-31T13:26:49;26.10;81.10
44731;DHT22;30458;47.448;19.032;2023-07-31T13:36:49;26.00;81.10
44731;DHT22;30458;47.448;19.032;2023-07-31T13:46:51;26.10;80.50
44731;DHT22;30458;47.448;19.032;2023-07-31T13:56:57;26.20;81.10
44731;DHT22;30458;47.448;19.032;2023-07-31T14:06:58;26.10;80.30
44731;DHT22;30458;47.448;19.032;2023-07-31T14:17:02;26.10;79.90
44731;DHT22;30458;47.448;19.032;2023-07-31T14:27:05;26.10;80.10
44731;DHT22;30458;47.448;19.032;2023-07-31T14:37:06;26.00;80.00
44731;DHT22;30458;47.448;19.032;2023-07-31T14:47:06;26.10;80.10
44731;DHT22;30458;47.448;19.032;2023-07-31T14:57:09;26.30;81.00
44731;DHT22;30458;47.448;19.032;2023-07-31T15:07:10;26.40;80.20
44731;DHT22;30458;47.448;19.032;2023-07-31T15:17:11;26.30;79.60
44731;DHT22;30458;47.448;19.032;2023-07-31T15:27:12;26.40;79.10
44731;DHT22;30458;47.448;19.032;2023-07-31T15:37:15;26.30;78.20
44731;DHT22;30458;47.448;19.032;2023-07-31T15:47:22;26.30;79.10
44731;DHT22;30458;47.448;19.032;2023-07-31T15:57:23;26.30;79.40
44731;DHT22;30458;47.448;19.032;2023-07-31T16:07:23;26.30;79.30
44731;DHT22;30458;47.448;19.032;2023-07-31T16:17:24;26.20;79.20
44731;DHT22;30458;47.448;19.032;2023-07-31T16:27:28;26.10;78.80
44731;DHT22;30458;47.448;19.032;2023-07-31T16:37:29;26.00;80.10
44731;DHT22;30458;47.448;19.032;2023-07-31T16:47:29;25.80;79.80
44731;DHT22;30458;47.448;19.032;2023-07-31T16:57:30;25.50;80.40
44731;DHT22;30458;47.448;19.032;2023-07-31T17:07:31;25.40;81.00
44731;DHT22;30458;47.448;19.032;2023-07-31T17:17:34;25.20;81.40
44731;DHT22;30458;47.448;19.032;2023-07-31T17:27:37;25.10;82.30
44731;DHT22;30458;47.448;19.032;2023-07-31T17:37:39;25.10;82.40
44731;DHT22;30458;47.448;19.032;2023-07-31T17:47:39;25.00;82.90
44731;DHT22;30458;47.448;19.032;2023-07-31T17:57:40;25.00;83.30
44731;DHT22;30458;47.448;19.032;2023-07-31T18:07:43;25.10;83.00
44731;DHT22;30458;47.448;19.032;2023-07-31T18:17:44;25.20;83.40
44731;DHT22;30458;47.448;19.032;2023-07-31T18:27:45;25.00;84.40
44731;DHT22;30458;47.448;19.032;2023-07-31T18:37:52;24.70;84.80
44731;DHT22;30458;47.448;19.032;2023-07-31T18:47:52;24.30;83.80
44731;DHT22;30458;47.448;19.032;2023-07-31T18:57:53;24.10;84.80
44731;DHT22;30458;47.448;19.032;2023-07-31T19:07:56;24.10;85.90
44731;DHT22;30458;47.448;19.032;2023-07-31T19:18:01;24.10;86.60
44731;DHT22;30458;47.448;19.032;2023-07-31T19:28:04;23.90;87.20
44731;DHT22;30458;47.448;19.032;2023-07-31T19:38:04;23.70;88.50
44731;DHT22;30458;47.448;19.032;2023-07-31T19:48:07;23.60;88.00
44731;DHT22;30458;47.448;19.032;2023-07-31T19:58:08;23.40;88.80
44731;DHT22;30458;47.448;19.032;2023-07-31T20:08:09;23.40;89.70
44731;DHT22;30458;47.448;19.032;2023-07-31T20:18:10;23.30;90.10
44731;DHT22;30458;47.448;19.032;2023-07-31T20:28:13;23.10;90.40
44731;DHT22;30458;47.448;19.032;2023-07-31T20:38:18;22.90;91.10
44731;DHT22;30458;47.448;19.032;2023-07-31T20:48:21;22.60;91.10
44731;DHT22;30458;47.448;19.032;2023-07-31T20:58:25;22.40;91.30
44731;DHT22;30458;47.448;19.032;2023-07-31T21:08:28;22.40;91.30
44731;DHT22;30458;47.448;19.032;2023-07-31T21:18:29;22.30;91.60
44731;DHT22;30458;47.448;19.032;2023-07-31T21:28:30;22.10;91.70
44731;DHT22;30458;47.448;19.032;2023-07-31T21:38:32;22.00;92.10
44731;DHT22;30458;47.448;19.032;2023-07-31T21:48:38;22.10;91.90
44731;DHT22;30458;47.448;19.032;2023-07-31T21:58:43;22.00;92.10
44731;DHT22;30458;47.448;19.032;2023-07-31T22:08:44;21.90;92.50
44731;DHT22;30458;47.448;19.032;2023-07-31T22:18:47;21.80;92.60
44731;DHT22;30458;47.448;19.032;2023-07-31T22:28:48;21.30;93.30
44731;DHT22;30458;47.448;19.032;2023-07-31T22:38:52;21.10;93.80
44731;DHT22;30458;47.448;19.032;2023-07-31T22:48:54;21.10;93.90
44731;DHT22;30458;47.448;19.032;2023-07-31T22:58:55;21.30;93.70
44731;DHT22;30458;47.448;19.032;2023-07-31T23:08:56;21.10;94.20
44731;DHT22;30458;47.448;19.032;2023-07-31T23:18:57;20.90;94.60
44731;DHT22;30458;47.448;19.032;2023-07-31T23:29:00;20.60;95.10
44731;DHT22;30458;47.448;19.032;2023-07-31T23:39:01;20.60;95.20
44731;DHT22;30458;47.448;19.032;2023-07-31T23:49:02;20.50;95.60
44731;DHT22;30458;47.448;19.032;2023-07-31T23:59:03;20.20;96.00
